Big Lake, Minnesota
Current Conditions -  °F | °C
As of 2:35 AM on Friday 28 Nov 2014 (Local Time) from KCFE Reporting Station
Overcast Overcast  
Wind Chill: -5°   Ceiling: 6000
Heat Index:   Visibility: 10mi
Dew Point:   Wind: 9mph
Humidity: 83%   Direction: 100°E
Pressure: 30.13"   Gusts: NA
Location:  45.33°N, 93.75°W
Report Text: KCFE 280835Z AUTO 10008KT 10SM SCT042 OVC060 M13/M15 A3013 RMK AO2 T11301154
Loading
Personal Weather Stations






























Interactive Weather Map New forecast layout! Learn more

10-Day Weather Forecast

Advertisements
Track Severe Weather on mobile